weather.gov     
National Weather Service

Terminal Aerodrome Forecast
NWS Homepage
This page is being discontinued on March 12, 2014.
The same data is available at this site. Please update your bookmarks.
Thank you, and we apologize for the inconvenience.
Please send an email to SR-SRH.Webmaster@noaa.gov with any concerns.


Current Version
Previous Version:    01  02  03  04  05  06  07  08  09  10  11  12  13  14  15  16  17  18  19  20  21  22  23  24  25  26  27  28  29  30  
   31  32  33  34  
[Printable]
500
FTUS45 KGID 172339
TAFEAR
TAF
KEAR 172339Z 1800/1824 12006KT P6SM OVC250
     FM181000 13006KT 2SM BR OVC015
     FM181200 13005KT 2SM BR OVC006
     FM181600 15011G18KT P6SM OVC035
     FM182200 15011KT P6SM BKN250=


500
FTUS45 KGID 172339
TAFEAR
TAF

AMD L
 TD TO CLD VIS AND WIND=


500
FTUS45 KGID 172339
TAFEAR
TAF
KEAR 172339Z 1800/1824 12006KT P6SM OVC250
     FM181000 13006KT 2SM BR OVC015
     FM181200 13005KT 2SM BR OVC006
     FM181600 15011G18KT P6SM OVC035
     FM182200 15011KT P6SM BKN250=

AMD L
 TD TO CLD VIS AND WIND=




U.S. Dept. of Commerce
NOAA National Weather Service
1325 East West Highway
Silver Spring, MD 20910
E-mail: w-nws.webmaster@noaa.gov
Page last modified: May 16, 2007
NATIONAL WEATHER SERVICE: for Safety, for Work, for Fun - FOR LIFE